createdAt,value
2022-10-22T00:01:06.223Z,4.45
2022-10-22T00:03:33.810Z,4.68
2022-10-22T00:06:01.405Z,4.53
2022-10-22T00:08:29.474Z,4.65
2022-10-22T00:10:57.161Z,3.85
2022-10-22T00:13:25.455Z,4.78
2022-10-22T00:15:52.975Z,4.90
2022-10-22T00:18:20.447Z,4.28
2022-10-22T00:20:47.921Z,4.30
2022-10-22T00:23:15.419Z,4.72
2022-10-22T00:25:42.871Z,4.53
2022-10-22T00:28:11.603Z,4.55
2022-10-22T00:30:39.122Z,4.20
2022-10-22T00:33:07.002Z,4.07
2022-10-22T00:35:34.526Z,4.32
2022-10-22T00:38:02.205Z,4.25
2022-10-22T00:40:30.126Z,4.28
2022-10-22T00:42:57.729Z,4.15
2022-10-22T00:45:27.600Z,4.47
2022-10-22T00:48:04.950Z,4.13
2022-10-22T00:50:46.731Z,4.28
2022-10-22T00:53:20.907Z,3.58
2022-10-22T00:55:52.713Z,4.05
2022-10-22T00:58:23.074Z,4.78
2022-10-22T01:00:50.704Z,4.18
2022-10-22T01:03:18.365Z,4.70
2022-10-22T01:05:50.172Z,4.70
2022-10-22T01:08:28.480Z,4.57
2022-10-22T01:11:14.366Z,4.20
2022-10-22T01:13:57.212Z,4.18
2022-10-22T01:16:37.503Z,4.22
2022-10-22T01:19:24.601Z,4.45
2022-10-22T01:21:59.720Z,4.30
2022-10-22T01:24:43.717Z,3.80
2022-10-22T01:27:31.558Z,3.97
2022-10-22T01:30:02.422Z,3.97
2022-10-22T01:32:34.733Z,3.53
2022-10-22T01:35:06.624Z,3.80
2022-10-22T01:37:39.960Z,4.30
2022-10-22T01:40:09.507Z,4.10
2022-10-22T01:42:36.969Z,4.72
2022-10-22T01:45:12.657Z,4.30
2022-10-22T01:47:57.086Z,3.75
2022-10-22T01:50:32.466Z,4.13
2022-10-22T01:53:21.934Z,3.88
2022-10-22T01:55:55.237Z,4.43
2022-10-22T01:58:37.431Z,4.07
2022-10-22T02:01:22.929Z,4.00
2022-10-22T02:04:19.540Z,4.28
2022-10-22T02:06:50.757Z,4.22
2022-10-22T02:09:22.128Z,4.45
2022-10-22T02:11:50.817Z,4.47
2022-10-22T02:14:20.381Z,3.90
2022-10-22T02:16:50.173Z,4.00
2022-10-22T02:19:26.703Z,4.28
2022-10-22T02:21:55.195Z,3.85
2022-10-22T02:24:23.430Z,4.30
2022-10-22T02:27:06.453Z,5.55
2022-10-22T02:30:05.191Z,4.00
2022-10-22T02:32:38.609Z,4.30
2022-10-22T02:35:07.304Z,4.10
2022-10-22T02:37:35.574Z,4.35
2022-10-22T02:40:03.603Z,4.07
2022-10-22T02:42:31.209Z,4.53
2022-10-22T02:44:58.786Z,4.45
2022-10-22T02:47:26.377Z,3.97
2022-10-22T02:49:53.866Z,4.00
2022-10-22T02:52:21.312Z,4.57
2022-10-22T02:54:48.805Z,4.47
2022-10-22T02:57:16.501Z,4.25
2022-10-22T02:59:44.016Z,4.30
2022-10-22T03:02:11.504Z,4.20
2022-10-22T03:04:39.041Z,4.00
2022-10-22T03:07:06.661Z,4.43
2022-10-22T03:09:34.226Z,3.95
2022-10-22T03:12:01.717Z,4.72
2022-10-22T03:14:29.216Z,5.85
2022-10-22T03:16:56.702Z,4.47
2022-10-22T03:19:24.337Z,4.55
2022-10-22T03:21:57.864Z,4.85
2022-10-22T03:24:46.608Z,4.13
2022-10-22T03:27:16.867Z,4.57
2022-10-22T03:29:45.020Z,4.88
2022-10-22T03:32:13.191Z,4.15
2022-10-22T03:34:40.754Z,4.55
2022-10-22T03:37:08.589Z,5.00
2022-10-22T03:39:37.142Z,4.43
2022-10-22T03:42:06.974Z,4.50
2022-10-22T03:44:37.253Z,3.88
2022-10-22T03:47:05.076Z,4.55
2022-10-22T03:49:32.781Z,5.10
2022-10-22T03:52:09.422Z,4.70
2022-10-22T03:57:07.101Z,5.20
2022-10-22T03:59:39.624Z,4.80
2022-10-22T04:02:07.984Z,4.68
2022-10-22T04:04:36.152Z,4.35
2022-10-22T04:07:04.848Z,4.88
2022-10-22T04:09:33.838Z,4.13
2022-10-22T04:12:01.710Z,4.32
2022-10-22T04:14:29.216Z,5.00
2022-10-22T04:16:56.694Z,4.57
2022-10-22T04:19:24.558Z,3.75
2022-10-22T04:21:52.226Z,4.70
2022-10-22T04:24:19.673Z,3.85
2022-10-22T04:26:47.128Z,4.15
2022-10-22T04:29:16.367Z,4.10
2022-10-22T04:31:44.127Z,4.25
2022-10-22T04:34:11.665Z,4.55
2022-10-22T04:36:39.143Z,4.40
2022-10-22T04:39:06.811Z,4.30
2022-10-22T04:41:38.994Z,4.20
2022-10-22T04:44:09.896Z,3.83
2022-10-22T04:46:41.359Z,4.15
2022-10-22T04:49:08.933Z,4.22
2022-10-22T04:51:36.408Z,4.68
2022-10-22T04:54:04.166Z,4.88
2022-10-22T04:56:32.378Z,4.30
2022-10-22T04:59:10.790Z,5.05
2022-10-22T05:01:44.083Z,5.45
2022-10-22T05:04:14.226Z,4.78
2022-10-22T05:06:41.826Z,4.65
2022-10-22T05:09:14.497Z,5.93
2022-10-22T05:11:48.636Z,5.28
2022-10-22T05:14:19.140Z,6.85
2022-10-22T05:16:48.610Z,5.32
2022-10-22T05:19:20.759Z,5.18
2022-10-22T05:21:48.249Z,4.50
2022-10-22T05:24:15.877Z,4.90
2022-10-22T05:26:43.397Z,5.47
2022-10-22T05:29:10.938Z,5.15
2022-10-22T05:31:38.960Z,5.05
2022-10-22T05:34:06.445Z,5.10
2022-10-22T05:36:34.062Z,4.70
2022-10-22T05:39:01.593Z,4.38
2022-10-22T05:41:29.749Z,4.63
2022-10-22T05:43:58.827Z,5.28
2022-10-22T05:46:29.240Z,6.10
2022-10-22T05:49:02.607Z,11.15
2022-10-22T05:51:36.612Z,10.88
2022-10-22T05:54:06.513Z,6.65
2022-10-22T05:56:34.952Z,6.20
2022-10-22T06:01:32.766Z,5.00
2022-10-22T06:04:02.186Z,5.47
2022-10-22T06:06:37.334Z,6.25
2022-10-22T06:09:13.449Z,5.18
2022-10-22T06:11:41.215Z,6.13
2022-10-22T06:14:09.761Z,5.00
2022-10-22T06:16:37.466Z,5.57
2022-10-22T06:19:05.584Z,12.30
2022-10-22T06:21:33.204Z,6.43
2022-10-22T06:24:02.346Z,10.50
2022-10-22T06:26:30.827Z,8.90
2022-10-22T06:28:58.763Z,6.15
2022-10-22T06:31:27.107Z,6.28
2022-10-22T06:33:56.488Z,6.03
2022-10-22T06:36:26.866Z,6.60
2022-10-22T06:38:56.047Z,5.97
2022-10-22T06:41:28.542Z,6.18
2022-10-22T06:44:00.439Z,6.30
2022-10-22T06:46:28.701Z,5.18
2022-10-22T06:49:01.002Z,6.05
2022-10-22T06:51:29.485Z,5.50
2022-10-22T06:53:58.959Z,4.55
2022-10-22T06:56:29.531Z,8.35
2022-10-22T06:59:00.053Z,7.68
2022-10-22T07:01:31.240Z,8.20
2022-10-22T07:04:00.377Z,7.45
2022-10-22T07:06:57.722Z,9.32
2022-10-22T07:09:48.583Z,7.40
2022-10-22T07:12:32.480Z,7.15
2022-10-22T07:15:05.728Z,6.85
2022-10-22T07:17:33.950Z,7.25
2022-10-22T07:20:23.461Z,7.40
2022-10-22T07:23:03.395Z,7.53
2022-10-22T07:25:48.700Z,6.55
2022-10-22T07:28:19.150Z,6.82
2022-10-22T07:30:49.804Z,9.23
2022-10-22T07:33:20.853Z,6.18
2022-10-22T07:35:48.737Z,5.43
2022-10-22T07:38:19.203Z,4.40
2022-10-22T07:40:49.202Z,5.82
2022-10-22T07:43:18.503Z,4.82
2022-10-22T07:45:46.724Z,5.07
2022-10-22T07:48:17.630Z,5.03
2022-10-22T07:50:56.065Z,5.95
2022-10-22T07:53:24.729Z,7.25
2022-10-22T07:55:52.645Z,8.38
2022-10-22T07:58:23.178Z,4.70
2022-10-22T08:01:00.824Z,5.95
2022-10-22T08:03:33.711Z,5.35
2022-10-22T08:06:14.350Z,6.72
2022-10-22T08:08:43.810Z,8.88
2022-10-22T08:11:12.482Z,7.25
2022-10-22T08:13:50.999Z,8.77
2022-10-22T08:16:22.902Z,9.23
2022-10-22T08:18:52.977Z,9.05
2022-10-22T08:21:20.635Z,11.57
2022-10-22T08:23:48.326Z,12.32
2022-10-22T08:26:16.126Z,8.60
2022-10-22T08:28:43.882Z,5.60
2022-10-22T08:31:12.376Z,4.75
2022-10-22T08:33:40.010Z,4.57
2022-10-22T08:36:08.060Z,8.10
2022-10-22T08:38:35.897Z,6.38
2022-10-22T08:41:16.615Z,4.85
2022-10-22T08:44:21.390Z,6.20
2022-10-22T08:47:24.489Z,5.45
2022-10-22T08:49:58.348Z,2.33
2022-10-22T08:52:26.277Z,3.47
2022-10-22T08:54:59.444Z,3.13
2022-10-22T08:57:41.904Z,4.05
2022-10-22T09:00:24.136Z,3.92
2022-10-22T09:03:03.677Z,2.35
2022-10-22T09:05:54.099Z,2.40
2022-10-22T09:08:22.546Z,1.63
2022-10-22T09:10:56.023Z,1.55
2022-10-22T09:13:24.203Z,1.63
2022-10-22T09:15:57.589Z,1.30
2022-10-22T09:18:27.970Z,1.00
2022-10-22T09:21:11.088Z,1.27
2022-10-22T09:23:51.405Z,1.02
2022-10-22T09:26:18.931Z,0.50
2022-10-22T09:28:52.730Z,0.82
2022-10-22T09:31:22.725Z,1.30
2022-10-22T09:33:51.471Z,1.00
2022-10-22T09:36:22.590Z,1.65
2022-10-22T09:38:53.017Z,1.80
2022-10-22T09:41:25.768Z,1.40
2022-10-22T09:43:53.522Z,1.40
2022-10-22T09:46:25.278Z,1.55
2022-10-22T09:49:02.560Z,1.50
2022-10-22T09:51:56.515Z,3.40
2022-10-22T09:54:27.587Z,2.53
2022-10-22T09:57:03.973Z,1.88
2022-10-22T09:59:37.051Z,0.52
2022-10-22T10:02:33.500Z,0.88
2022-10-22T10:05:05.422Z,1.10
2022-10-22T10:07:35.356Z,0.60
2022-10-22T10:10:12.286Z,1.38
2022-10-22T10:12:42.779Z,1.05
2022-10-22T10:15:36.632Z,1.73
2022-10-22T10:18:25.072Z,2.08
2022-10-22T10:23:52.854Z,4.43
2022-10-22T10:26:52.716Z,1.00
2022-10-22T10:29:26.257Z,0.80
2022-10-22T10:32:26.189Z,1.35
2022-10-22T10:35:15.645Z,1.70
2022-10-22T10:38:06.748Z,1.42
2022-10-22T10:40:56.871Z,1.33
2022-10-22T10:44:11.766Z,0.80
2022-10-22T10:46:47.849Z,0.80
2022-10-22T10:49:23.168Z,0.90
2022-10-22T10:52:09.593Z,0.70
2022-10-22T10:55:02.225Z,0.73
2022-10-22T10:57:38.840Z,0.80
2022-10-22T11:00:11.976Z,1.05
2022-10-22T11:02:45.754Z,0.57
2022-10-22T11:05:25.257Z,0.50
2022-10-22T11:08:01.159Z,0.60
2022-10-22T11:10:52.234Z,0.50
2022-10-22T11:13:28.714Z,0.60
2022-10-22T11:15:59.858Z,0.82
2022-10-22T11:18:53.443Z,1.02
2022-10-22T11:21:50.413Z,4.03
2022-10-22T11:24:28.255Z,2.85
2022-10-22T11:27:18.689Z,0.90
2022-10-22T11:29:54.047Z,0.68
2022-10-22T11:32:23.838Z,0.82
2022-10-22T11:34:56.291Z,0.40
2022-10-22T11:37:33.055Z,0.98
2022-10-22T11:40:18.517Z,0.47
2022-10-22T11:42:53.829Z,1.20
2022-10-22T11:45:24.286Z,1.13
2022-10-22T11:48:18.927Z,2.72
2022-10-22T11:50:57.009Z,2.55
2022-10-22T11:53:39.079Z,1.67
2022-10-22T11:56:07.138Z,1.20
2022-10-22T11:58:39.367Z,0.88
2022-10-22T12:01:10.135Z,1.42
2022-10-22T12:03:49.406Z,1.13
2022-10-22T12:06:25.707Z,0.95
2022-10-22T12:08:53.464Z,1.15
2022-10-22T12:11:47.939Z,0.68
2022-10-22T12:14:34.211Z,0.50
2022-10-22T12:17:15.097Z,1.00
2022-10-22T12:19:50.131Z,0.60
2022-10-22T12:22:43.331Z,0.30
2022-10-22T12:25:22.265Z,0.70
2022-10-22T12:27:57.283Z,0.77
2022-10-22T12:30:31.098Z,0.50
2022-10-22T12:33:00.809Z,0.40
2022-10-22T12:35:34.577Z,0.55
2022-10-22T12:38:11.011Z,0.45
2022-10-22T12:40:45.819Z,1.50
2022-10-22T12:43:19.785Z,0.40
2022-10-22T12:45:50.615Z,0.22
2022-10-22T12:48:19.903Z,0.60
2022-10-22T12:50:51.879Z,0.88
2022-10-22T12:53:30.018Z,1.10
2022-10-22T12:56:05.430Z,1.08
2022-10-22T12:58:39.053Z,1.55
2022-10-22T13:01:07.342Z,1.13
2022-10-22T13:03:40.464Z,1.35
2022-10-22T13:06:20.470Z,6.70
2022-10-22T13:09:00.342Z,5.22
2022-10-22T13:11:39.949Z,3.05
2022-10-22T13:14:29.102Z,2.15
2022-10-22T13:17:08.879Z,2.60
2022-10-22T13:19:42.517Z,2.08
2022-10-22T13:22:31.236Z,2.78
2022-10-22T13:25:23.382Z,2.92
2022-10-22T13:27:57.276Z,2.00
2022-10-22T13:30:29.503Z,37.22
2022-10-22T13:33:04.507Z,6.82
2022-10-22T13:35:37.667Z,1.23
2022-10-22T13:38:18.453Z,1.67
2022-10-22T13:40:46.549Z,0.52
2022-10-22T13:43:17.419Z,0.85
2022-10-22T13:45:51.766Z,1.10
2022-10-22T13:48:25.836Z,1.42
2022-10-22T13:50:54.106Z,1.67
2022-10-22T13:53:28.346Z,1.38
2022-10-22T13:55:59.277Z,1.35
2022-10-22T13:58:26.918Z,1.95
2022-10-22T14:00:59.753Z,2.80
2022-10-22T14:03:32.327Z,1.50
2022-10-22T14:06:00.669Z,1.75
2022-10-22T14:08:28.948Z,12.73
2022-10-22T14:10:56.576Z,11.30
2022-10-22T14:13:24.322Z,4.28
2022-10-22T14:15:52.728Z,4.35
2022-10-22T14:18:26.388Z,4.60
2022-10-22T14:21:00.855Z,2.50
2022-10-22T14:23:30.576Z,9.48
2022-10-22T14:25:59.736Z,22.25
2022-10-22T14:28:41.050Z,14.40
2022-10-22T14:31:14.129Z,5.82
2022-10-22T14:33:41.770Z,4.93
2022-10-22T14:36:15.277Z,3.58
2022-10-22T14:38:44.896Z,3.25
2022-10-22T14:41:21.263Z,3.88
2022-10-22T14:43:49.981Z,5.05
2022-10-22T14:46:19.223Z,4.75
2022-10-22T14:48:47.750Z,4.40
2022-10-22T14:51:18.667Z,3.00
2022-10-22T14:53:47.621Z,2.90
2022-10-22T14:56:21.433Z,3.13
2022-10-22T14:58:53.444Z,2.90
2022-10-22T15:01:21.077Z,2.67
2022-10-22T15:03:48.693Z,2.72
2022-10-22T15:06:16.328Z,2.50
2022-10-22T15:08:45.367Z,2.28
2022-10-22T15:11:13.773Z,2.05
2022-10-22T15:13:42.271Z,1.55
2022-10-22T15:16:11.199Z,2.42
2022-10-22T15:18:38.819Z,3.03
2022-10-22T15:21:13.032Z,2.67
2022-10-22T15:23:40.738Z,2.97
2022-10-22T15:26:09.278Z,2.33
2022-10-22T15:28:38.555Z,1.98
2022-10-22T15:31:07.168Z,2.45
2022-10-22T15:33:34.949Z,1.80
2022-10-22T15:36:16.671Z,1.95
2022-10-22T15:38:44.288Z,3.08
2022-10-22T15:41:12.696Z,4.93
2022-10-22T15:43:40.350Z,2.80
2022-10-22T15:46:16.440Z,1.55
2022-10-22T15:48:45.483Z,2.38
2022-10-22T15:51:15.826Z,1.92
2022-10-22T15:53:44.192Z,2.97
2022-10-22T15:56:12.115Z,1.80
2022-10-22T15:58:39.952Z,2.80
2022-10-22T16:01:13.197Z,2.78
2022-10-22T16:03:41.919Z,1.40
2022-10-22T16:06:09.776Z,0.95
2022-10-22T16:08:37.746Z,0.70
2022-10-22T16:11:05.764Z,1.70
2022-10-22T16:13:33.488Z,1.67
2022-10-22T16:16:06.472Z,1.08
2022-10-22T16:18:34.608Z,0.70
2022-10-22T16:21:02.531Z,0.75
2022-10-22T16:23:30.381Z,0.82
2022-10-22T16:26:01.048Z,1.10
2022-10-22T16:28:28.762Z,1.00
2022-10-22T16:30:56.358Z,1.10
2022-10-22T16:33:23.954Z,1.23
2022-10-22T16:35:54.324Z,1.58
2022-10-22T16:38:21.929Z,1.83
2022-10-22T16:40:51.534Z,2.10
2022-10-22T16:43:19.509Z,1.63
2022-10-22T16:45:50.343Z,4.65
2022-10-22T16:48:19.144Z,1.30
2022-10-22T16:50:46.850Z,1.15
2022-10-22T16:53:14.410Z,3.40
2022-10-22T16:55:42.003Z,3.55
2022-10-22T16:58:09.555Z,3.47
2022-10-22T17:00:37.388Z,7.25
2022-10-22T17:03:05.114Z,9.68
2022-10-22T17:05:35.332Z,4.47
2022-10-22T17:08:03.112Z,1.95
2022-10-22T17:10:30.734Z,1.10
2022-10-22T17:12:58.349Z,3.17
2022-10-22T17:15:25.985Z,1.40
2022-10-22T17:17:56.660Z,1.33
2022-10-22T17:20:24.889Z,1.40
2022-10-22T17:22:57.569Z,1.83
2022-10-22T17:25:40.959Z,2.30
2022-10-22T17:28:11.285Z,1.45
2022-10-22T17:30:40.818Z,1.55
2022-10-22T17:33:09.497Z,3.33
2022-10-22T17:35:43.105Z,2.17
2022-10-22T17:38:10.757Z,2.70
2022-10-22T17:40:39.456Z,2.97
2022-10-22T17:43:07.076Z,2.38
2022-10-22T17:45:35.393Z,2.10
2022-10-22T17:48:03.002Z,1.35
2022-10-22T17:50:30.877Z,0.82
2022-10-22T17:52:58.519Z,1.75
2022-10-22T17:55:26.472Z,1.60
2022-10-22T17:57:54.012Z,3.63
2022-10-22T18:00:27.336Z,0.68
2022-10-22T18:02:55.068Z,1.63
2022-10-22T18:05:25.018Z,1.55
2022-10-22T18:07:58.684Z,2.00
2022-10-22T18:10:26.269Z,0.98
2022-10-22T18:12:53.942Z,2.75
2022-10-22T18:15:22.678Z,1.17
2022-10-22T18:17:50.369Z,2.58
2022-10-22T18:20:18.076Z,1.83
2022-10-22T18:22:46.147Z,1.02
2022-10-22T18:25:14.046Z,1.88
2022-10-22T18:27:45.933Z,1.30
2022-10-22T18:30:13.899Z,2.03
2022-10-22T18:32:41.428Z,2.45
2022-10-22T18:35:09.786Z,1.02
2022-10-22T18:37:38.737Z,2.10
2022-10-22T18:40:10.410Z,3.10
2022-10-22T18:42:43.426Z,3.90
2022-10-22T18:45:12.079Z,3.95
2022-10-22T18:47:43.124Z,2.38
2022-10-22T18:50:10.781Z,1.77
2022-10-22T18:52:38.938Z,1.40
2022-10-22T18:55:07.020Z,1.85
2022-10-22T18:57:34.599Z,1.90
2022-10-22T19:00:05.269Z,1.95
2022-10-22T19:02:32.967Z,1.70
2022-10-22T19:05:00.531Z,1.30
2022-10-22T19:07:28.206Z,1.35
2022-10-22T19:09:58.073Z,0.80
2022-10-22T19:12:25.778Z,0.80
2022-10-22T19:14:56.040Z,0.75
2022-10-22T19:17:23.602Z,3.15
2022-10-22T19:19:51.202Z,1.13
2022-10-22T19:22:20.889Z,0.82
2022-10-22T19:24:51.533Z,0.32
2022-10-22T19:27:19.615Z,1.48
2022-10-22T19:29:49.532Z,1.02
2022-10-22T19:32:19.987Z,1.50
2022-10-22T19:34:48.902Z,0.63
2022-10-22T19:37:16.428Z,0.90
2022-10-22T19:39:44.106Z,1.35
2022-10-22T19:42:11.724Z,1.05
2022-10-22T19:44:39.449Z,0.90
2022-10-22T19:47:07.081Z,0.93
2022-10-22T19:49:34.643Z,1.58
2022-10-22T19:52:02.808Z,0.80
2022-10-22T19:54:30.548Z,0.57
2022-10-22T19:56:58.184Z,0.70
2022-10-22T19:59:29.862Z,0.98
2022-10-22T20:01:59.088Z,0.82
2022-10-22T20:04:28.112Z,1.00
2022-10-22T20:06:56.958Z,0.57
2022-10-22T20:09:32.172Z,1.00
2022-10-22T20:12:00.107Z,0.93
2022-10-22T20:14:27.668Z,0.43
2022-10-22T20:16:58.536Z,0.60
2022-10-22T20:19:29.953Z,0.55
2022-10-22T20:24:30.285Z,0.65
2022-10-22T20:26:57.896Z,0.43
2022-10-22T20:29:25.533Z,0.45
2022-10-22T20:31:53.699Z,0.40
2022-10-22T20:34:22.620Z,0.20
2022-10-22T20:36:54.427Z,0.45
2022-10-22T20:39:22.405Z,0.28
2022-10-22T20:41:50.437Z,0.60
2022-10-22T20:44:18.621Z,0.38
2022-10-22T20:46:46.291Z,0.47
2022-10-22T20:49:16.373Z,0.40
2022-10-22T20:51:44.448Z,0.20
2022-10-22T20:54:14.305Z,0.65
2022-10-22T20:56:42.891Z,0.60
2022-10-22T20:59:12.355Z,1.08
2022-10-22T21:01:45.320Z,1.05
2022-10-22T21:04:13.364Z,2.00
2022-10-22T21:06:42.975Z,1.02
2022-10-22T21:09:12.920Z,0.28
2022-10-22T21:11:42.407Z,0.55
2022-10-22T21:14:11.666Z,0.55
2022-10-22T21:16:44.373Z,0.30
2022-10-22T21:19:12.096Z,0.35
2022-10-22T21:21:39.657Z,0.30
2022-10-22T21:24:07.537Z,0.40
2022-10-22T21:26:40.104Z,0.73
2022-10-22T21:29:09.404Z,0.65
2022-10-22T21:31:40.640Z,0.40
2022-10-22T21:34:08.462Z,0.40
2022-10-22T21:36:36.034Z,0.52
2022-10-22T21:39:03.893Z,0.57
2022-10-22T21:41:31.543Z,0.70
2022-10-22T21:43:59.149Z,0.50
2022-10-22T21:46:28.108Z,0.52
2022-10-22T21:49:02.021Z,0.25
2022-10-22T21:51:31.835Z,0.60
2022-10-22T21:53:59.819Z,0.40
2022-10-22T21:56:32.872Z,0.82
2022-10-22T21:59:02.327Z,0.35
2022-10-22T22:01:30.407Z,0.70
2022-10-22T22:04:00.025Z,0.30
2022-10-22T22:06:33.161Z,0.50
2022-10-22T22:09:02.486Z,0.50
2022-10-22T22:11:30.503Z,0.50
2022-10-22T22:13:58.862Z,0.68
2022-10-22T22:16:29.074Z,0.35
2022-10-22T22:19:09.408Z,0.77
2022-10-22T22:21:44.373Z,0.60
2022-10-22T22:24:13.499Z,0.37
2022-10-22T22:26:41.349Z,0.68
2022-10-22T22:29:10.316Z,0.55
2022-10-22T22:31:37.906Z,0.60
2022-10-22T22:34:07.892Z,1.02
2022-10-22T22:36:38.149Z,0.32
2022-10-22T22:39:07.434Z,0.40
2022-10-22T22:41:35.934Z,0.55
2022-10-22T22:44:03.583Z,0.75
2022-10-22T22:46:31.568Z,0.47
2022-10-22T22:48:59.193Z,0.80
2022-10-22T22:51:27.253Z,0.40
2022-10-22T22:53:56.886Z,0.55
2022-10-22T22:56:26.862Z,0.38
2022-10-22T22:58:55.374Z,0.57
2022-10-22T23:01:23.114Z,0.50
2022-10-22T23:04:03.573Z,0.90
2022-10-22T23:06:34.031Z,0.68
2022-10-22T23:09:01.791Z,0.57
2022-10-22T23:11:29.765Z,0.20
2022-10-22T23:14:00.131Z,0.52
2022-10-22T23:16:31.596Z,0.20
2022-10-22T23:19:00.044Z,0.35
2022-10-22T23:21:36.694Z,0.25
2022-10-22T23:24:08.032Z,0.63
2022-10-22T23:26:39.491Z,0.60
2022-10-22T23:29:10.835Z,0.35
2022-10-22T23:31:38.709Z,0.50
2022-10-22T23:34:07.691Z,0.43
2022-10-22T23:36:36.963Z,0.40
2022-10-22T23:39:09.464Z,0.52
2022-10-22T23:41:37.840Z,0.47
2022-10-22T23:44:06.754Z,0.40
2022-10-22T23:46:34.772Z,0.63
2022-10-22T23:49:02.479Z,0.30
2022-10-22T23:51:30.087Z,0.65
2022-10-22T23:54:04.081Z,0.45
2022-10-22T23:56:32.829Z,0.55
2022-10-22T23:59:00.551Z,0.38
